sensor_id;sensor_type;location;lat;lon;timestamp;P1;durP1;ratioP1;P2;durP2;ratioP2
64029;SDS011;50277;52.064;4.492;2023-02-28T00:00:12;8.90;;;2.78;;
64029;SDS011;50277;52.064;4.492;2023-02-28T00:02:39;6.63;;;2.35;;
64029;SDS011;50277;52.064;4.492;2023-02-28T00:05:05;5.88;;;2.08;;
64029;SDS011;50277;52.064;4.492;2023-02-28T00:07:31;4.35;;;2.05;;
64029;SDS011;50277;52.064;4.492;2023-02-28T00:09:57;6.95;;;2.55;;
64029;SDS011;50277;52.064;4.492;2023-02-28T00:12:22;4.25;;;2.40;;
64029;SDS011;50277;52.064;4.492;2023-02-28T00:14:48;6.10;;;1.98;;
64029;SDS011;50277;52.064;4.492;2023-02-28T00:17:13;6.53;;;2.58;;
64029;SDS011;50277;52.064;4.492;2023-02-28T00:19:39;3.88;;;2.00;;
64029;SDS011;50277;52.064;4.492;2023-02-28T00:22:04;5.07;;;2.38;;
64029;SDS011;50277;52.064;4.492;2023-02-28T00:24:30;4.63;;;2.00;;
64029;SDS011;50277;52.064;4.492;2023-02-28T00:26:55;3.70;;;1.73;;
64029;SDS011;50277;52.064;4.492;2023-02-28T00:29:21;5.85;;;2.33;;
64029;SDS011;50277;52.064;4.492;2023-02-28T00:31:46;3.88;;;2.05;;
64029;SDS011;50277;52.064;4.492;2023-02-28T00:34:11;4.72;;;2.53;;
64029;SDS011;50277;52.064;4.492;2023-02-28T00:36:37;3.65;;;2.20;;
64029;SDS011;50277;52.064;4.492;2023-02-28T00:39:03;9.02;;;3.20;;
64029;SDS011;50277;52.064;4.492;2023-02-28T00:41:28;2.97;;;2.40;;
64029;SDS011;50277;52.064;4.492;2023-02-28T00:43:54;5.50;;;2.65;;
64029;SDS011;50277;52.064;4.492;2023-02-28T00:46:19;5.53;;;2.55;;
64029;SDS011;50277;52.064;4.492;2023-02-28T00:48:44;5.25;;;2.65;;
64029;SDS011;50277;52.064;4.492;2023-02-28T00:51:10;8.75;;;2.90;;
64029;SDS011;50277;52.064;4.492;2023-02-28T00:53:35;4.63;;;2.63;;
64029;SDS011;50277;52.064;4.492;2023-02-28T00:56:01;7.22;;;2.88;;
64029;SDS011;50277;52.064;4.492;2023-02-28T00:58:26;3.28;;;2.40;;
64029;SDS011;50277;52.064;4.492;2023-02-28T01:00:52;6.20;;;2.88;;
64029;SDS011;50277;52.064;4.492;2023-02-28T01:03:18;9.00;;;2.63;;
64029;SDS011;50277;52.064;4.492;2023-02-28T01:05:44;5.78;;;2.65;;
64029;SDS011;50277;52.064;4.492;2023-02-28T01:08:09;4.20;;;2.53;;
64029;SDS011;50277;52.064;4.492;2023-02-28T01:10:35;6.20;;;2.67;;
64029;SDS011;50277;52.064;4.492;2023-02-28T01:13:01;8.40;;;2.75;;
64029;SDS011;50277;52.064;4.492;2023-02-28T01:15:27;3.50;;;2.40;;
64029;SDS011;50277;52.064;4.492;2023-02-28T01:17:52;7.10;;;2.70;;
64029;SDS011;50277;52.064;4.492;2023-02-28T01:20:18;4.00;;;2.70;;
64029;SDS011;50277;52.064;4.492;2023-02-28T01:22:43;4.45;;;2.45;;
64029;SDS011;50277;52.064;4.492;2023-02-28T01:25:08;3.55;;;2.50;;
64029;SDS011;50277;52.064;4.492;2023-02-28T01:27:34;5.20;;;2.72;;
64029;SDS011;50277;52.064;4.492;2023-02-28T01:30:00;6.60;;;2.90;;
64029;SDS011;50277;52.064;4.492;2023-02-28T01:32:26;5.50;;;2.90;;
64029;SDS011;50277;52.064;4.492;2023-02-28T01:34:51;7.50;;;2.80;;
64029;SDS011;50277;52.064;4.492;2023-02-28T01:37:16;4.13;;;2.80;;
64029;SDS011;50277;52.064;4.492;2023-02-28T01:39:42;3.05;;;2.40;;
64029;SDS011;50277;52.064;4.492;2023-02-28T01:42:08;4.05;;;2.88;;
64029;SDS011;50277;52.064;4.492;2023-02-28T01:47:38;4.03;;;2.58;;
64029;SDS011;50277;52.064;4.492;2023-02-28T01:50:07;4.05;;;2.95;;
64029;SDS011;50277;52.064;4.492;2023-02-28T01:52:35;4.90;;;3.08;;
64029;SDS011;50277;52.064;4.492;2023-02-28T01:55:02;6.00;;;2.80;;
64029;SDS011;50277;52.064;4.492;2023-02-28T01:57:34;6.63;;;3.33;;
64029;SDS011;50277;52.064;4.492;2023-02-28T02:00:12;6.57;;;2.90;;
64029;SDS011;50277;52.064;4.492;2023-02-28T02:02:41;6.90;;;3.60;;
64029;SDS011;50277;52.064;4.492;2023-02-28T02:05:09;3.65;;;3.03;;
64029;SDS011;50277;52.064;4.492;2023-02-28T02:07:37;6.75;;;3.20;;
64029;SDS011;50277;52.064;4.492;2023-02-28T02:10:11;5.70;;;2.90;;
64029;SDS011;50277;52.064;4.492;2023-02-28T02:13:10;6.25;;;2.85;;
64029;SDS011;50277;52.064;4.492;2023-02-28T02:16:14;4.07;;;2.90;;
64029;SDS011;50277;52.064;4.492;2023-02-28T02:35:01;5.07;;;3.40;;
64029;SDS011;50277;52.064;4.492;2023-02-28T02:37:49;5.60;;;3.28;;
64029;SDS011;50277;52.064;4.492;2023-02-28T02:40:38;5.25;;;3.20;;
64029;SDS011;50277;52.064;4.492;2023-02-28T02:43:13;4.68;;;3.20;;
64029;SDS011;50277;52.064;4.492;2023-02-28T02:48:27;4.72;;;3.22;;
64029;SDS011;50277;52.064;4.492;2023-02-28T02:50:57;5.95;;;3.30;;
64029;SDS011;50277;52.064;4.492;2023-02-28T02:53:25;4.60;;;3.30;;
64029;SDS011;50277;52.064;4.492;2023-02-28T02:55:53;7.30;;;3.20;;
64029;SDS011;50277;52.064;4.492;2023-02-28T02:58:21;6.28;;;3.35;;
64029;SDS011;50277;52.064;4.492;2023-02-28T03:00:53;6.55;;;3.45;;
64029;SDS011;50277;52.064;4.492;2023-02-28T03:03:20;6.38;;;3.15;;
64029;SDS011;50277;52.064;4.492;2023-02-28T03:05:54;6.70;;;3.35;;
64029;SDS011;50277;52.064;4.492;2023-02-28T03:08:21;4.13;;;3.10;;
64029;SDS011;50277;52.064;4.492;2023-02-28T03:10:48;5.80;;;3.45;;
64029;SDS011;50277;52.064;4.492;2023-02-28T03:13:23;5.07;;;3.63;;
64029;SDS011;50277;52.064;4.492;2023-02-28T03:21:56;8.65;;;3.78;;
64029;SDS011;50277;52.064;4.492;2023-02-28T03:27:23;7.75;;;4.25;;
64029;SDS011;50277;52.064;4.492;2023-02-28T03:29:56;8.02;;;3.55;;
64029;SDS011;50277;52.064;4.492;2023-02-28T03:32:42;11.07;;;3.50;;
64029;SDS011;50277;52.064;4.492;2023-02-28T03:35:27;7.25;;;3.75;;
64029;SDS011;50277;52.064;4.492;2023-02-28T03:38:19;6.68;;;4.15;;
64029;SDS011;50277;52.064;4.492;2023-02-28T03:41:09;7.43;;;4.07;;
64029;SDS011;50277;52.064;4.492;2023-02-28T03:43:57;6.38;;;3.67;;
64029;SDS011;50277;52.064;4.492;2023-02-28T03:46:26;9.60;;;4.30;;
64029;SDS011;50277;52.064;4.492;2023-02-28T03:49:09;9.13;;;4.15;;
64029;SDS011;50277;52.064;4.492;2023-02-28T03:51:40;6.10;;;4.28;;
64029;SDS011;50277;52.064;4.492;2023-02-28T03:54:08;10.23;;;4.22;;
64029;SDS011;50277;52.064;4.492;2023-02-28T03:56:44;10.35;;;4.10;;
64029;SDS011;50277;52.064;4.492;2023-02-28T03:59:18;9.43;;;4.00;;
64029;SDS011;50277;52.064;4.492;2023-02-28T04:01:48;6.85;;;3.90;;
64029;SDS011;50277;52.064;4.492;2023-02-28T04:04:14;8.32;;;4.65;;
64029;SDS011;50277;52.064;4.492;2023-02-28T04:06:41;9.65;;;4.20;;
64029;SDS011;50277;52.064;4.492;2023-02-28T04:09:07;9.98;;;4.35;;
64029;SDS011;50277;52.064;4.492;2023-02-28T04:14:00;8.07;;;4.25;;
64029;SDS011;50277;52.064;4.492;2023-02-28T04:16:27;10.00;;;4.43;;
64029;SDS011;50277;52.064;4.492;2023-02-28T04:18:52;8.02;;;4.20;;
64029;SDS011;50277;52.064;4.492;2023-02-28T04:21:17;15.63;;;4.35;;
64029;SDS011;50277;52.064;4.492;2023-02-28T04:23:45;5.15;;;4.00;;
64029;SDS011;50277;52.064;4.492;2023-02-28T04:26:11;6.53;;;4.57;;
64029;SDS011;50277;52.064;4.492;2023-02-28T04:28:36;6.88;;;4.43;;
64029;SDS011;50277;52.064;4.492;2023-02-28T04:31:03;6.18;;;4.00;;
64029;SDS011;50277;52.064;4.492;2023-02-28T04:33:29;7.60;;;4.10;;
64029;SDS011;50277;52.064;4.492;2023-02-28T04:36:03;5.13;;;3.97;;
64029;SDS011;50277;52.064;4.492;2023-02-28T04:38:32;9.38;;;5.03;;
64029;SDS011;50277;52.064;4.492;2023-02-28T04:40:58;7.65;;;4.70;;
64029;SDS011;50277;52.064;4.492;2023-02-28T04:43:25;9.60;;;4.70;;
64029;SDS011;50277;52.064;4.492;2023-02-28T04:45:51;7.05;;;4.32;;
64029;SDS011;50277;52.064;4.492;2023-02-28T04:48:16;8.23;;;4.43;;
64029;SDS011;50277;52.064;4.492;2023-02-28T04:50:42;11.68;;;5.32;;
64029;SDS011;50277;52.064;4.492;2023-02-28T04:53:07;8.88;;;4.95;;
64029;SDS011;50277;52.064;4.492;2023-02-28T04:55:33;7.43;;;4.22;;
64029;SDS011;50277;52.064;4.492;2023-02-28T04:57:58;7.63;;;4.22;;
64029;SDS011;50277;52.064;4.492;2023-02-28T05:00:24;9.90;;;4.13;;
64029;SDS011;50277;52.064;4.492;2023-02-28T05:02:50;8.70;;;4.50;;
64029;SDS011;50277;52.064;4.492;2023-02-28T05:05:15;8.93;;;4.28;;
64029;SDS011;50277;52.064;4.492;2023-02-28T05:07:43;8.07;;;4.60;;
64029;SDS011;50277;52.064;4.492;2023-02-28T05:10:09;8.02;;;4.80;;
64029;SDS011;50277;52.064;4.492;2023-02-28T05:12:36;10.25;;;5.22;;
64029;SDS011;50277;52.064;4.492;2023-02-28T05:15:01;8.93;;;5.40;;
64029;SDS011;50277;52.064;4.492;2023-02-28T05:17:27;11.82;;;6.10;;
64029;SDS011;50277;52.064;4.492;2023-02-28T05:19:53;6.85;;;4.75;;
64029;SDS011;50277;52.064;4.492;2023-02-28T05:22:18;7.68;;;4.85;;
64029;SDS011;50277;52.064;4.492;2023-02-28T05:24:44;6.82;;;4.47;;
64029;SDS011;50277;52.064;4.492;2023-02-28T05:27:09;8.52;;;5.10;;
64029;SDS011;50277;52.064;4.492;2023-02-28T05:29:35;7.90;;;5.35;;
64029;SDS011;50277;52.064;4.492;2023-02-28T05:32:06;11.63;;;4.78;;
64029;SDS011;50277;52.064;4.492;2023-02-28T05:34:33;7.95;;;4.60;;
64029;SDS011;50277;52.064;4.492;2023-02-28T05:36:58;7.95;;;4.65;;
64029;SDS011;50277;52.064;4.492;2023-02-28T05:39:24;6.40;;;4.38;;
64029;SDS011;50277;52.064;4.492;2023-02-28T05:41:49;5.75;;;4.55;;
64029;SDS011;50277;52.064;4.492;2023-02-28T05:44:15;7.43;;;5.18;;
64029;SDS011;50277;52.064;4.492;2023-02-28T05:46:40;8.55;;;5.40;;
64029;SDS011;50277;52.064;4.492;2023-02-28T05:49:06;8.40;;;4.95;;
64029;SDS011;50277;52.064;4.492;2023-02-28T05:51:31;12.80;;;5.35;;
64029;SDS011;50277;52.064;4.492;2023-02-28T05:54:00;5.82;;;4.35;;
64029;SDS011;50277;52.064;4.492;2023-02-28T05:56:26;7.05;;;4.88;;
64029;SDS011;50277;52.064;4.492;2023-02-28T05:58:51;12.27;;;5.40;;
64029;SDS011;50277;52.064;4.492;2023-02-28T06:01:35;7.57;;;5.25;;
64029;SDS011;50277;52.064;4.492;2023-02-28T06:04:03;10.70;;;5.15;;
64029;SDS011;50277;52.064;4.492;2023-02-28T06:06:29;6.88;;;5.00;;
64029;SDS011;50277;52.064;4.492;2023-02-28T06:08:55;6.28;;;5.03;;
64029;SDS011;50277;52.064;4.492;2023-02-28T06:11:21;8.68;;;4.95;;
64029;SDS011;50277;52.064;4.492;2023-02-28T06:13:46;8.38;;;5.25;;
64029;SDS011;50277;52.064;4.492;2023-02-28T06:16:12;8.38;;;5.47;;
64029;SDS011;50277;52.064;4.492;2023-02-28T06:18:37;8.95;;;5.00;;
64029;SDS011;50277;52.064;4.492;2023-02-28T06:21:03;8.05;;;4.70;;
64029;SDS011;50277;52.064;4.492;2023-02-28T06:23:28;10.32;;;5.38;;
64029;SDS011;50277;52.064;4.492;2023-02-28T06:25:54;9.18;;;5.55;;
64029;SDS011;50277;52.064;4.492;2023-02-28T06:30:48;9.13;;;5.60;;
64029;SDS011;50277;52.064;4.492;2023-02-28T06:33:13;6.38;;;5.47;;
64029;SDS011;50277;52.064;4.492;2023-02-28T06:35:38;10.85;;;5.97;;
64029;SDS011;50277;52.064;4.492;2023-02-28T06:38:04;9.48;;;5.20;;
64029;SDS011;50277;52.064;4.492;2023-02-28T06:40:29;8.50;;;5.53;;
64029;SDS011;50277;52.064;4.492;2023-02-28T06:42:58;7.43;;;5.32;;
64029;SDS011;50277;52.064;4.492;2023-02-28T06:45:24;8.98;;;5.50;;
64029;SDS011;50277;52.064;4.492;2023-02-28T06:47:51;7.80;;;5.28;;
64029;SDS011;50277;52.064;4.492;2023-02-28T06:50:17;6.22;;;4.95;;
64029;SDS011;50277;52.064;4.492;2023-02-28T06:52:44;6.15;;;5.22;;
64029;SDS011;50277;52.064;4.492;2023-02-28T06:55:09;6.30;;;4.32;;
64029;SDS011;50277;52.064;4.492;2023-02-28T06:57:35;5.22;;;3.95;;
64029;SDS011;50277;52.064;4.492;2023-02-28T07:00:02;4.60;;;3.30;;
64029;SDS011;50277;52.064;4.492;2023-02-28T07:02:32;5.10;;;3.22;;
64029;SDS011;50277;52.064;4.492;2023-02-28T07:04:58;7.70;;;3.38;;
64029;SDS011;50277;52.064;4.492;2023-02-28T07:07:23;5.97;;;3.80;;
64029;SDS011;50277;52.064;4.492;2023-02-28T07:09:48;4.55;;;3.40;;
64029;SDS011;50277;52.064;4.492;2023-02-28T07:12:14;3.75;;;3.03;;
64029;SDS011;50277;52.064;4.492;2023-02-28T07:14:39;5.95;;;3.25;;
64029;SDS011;50277;52.064;4.492;2023-02-28T07:17:06;6.03;;;3.90;;
64029;SDS011;50277;52.064;4.492;2023-02-28T07:19:32;4.07;;;3.35;;
64029;SDS011;50277;52.064;4.492;2023-02-28T07:21:58;4.85;;;3.70;;
64029;SDS011;50277;52.064;4.492;2023-02-28T07:24:23;5.13;;;3.83;;
64029;SDS011;50277;52.064;4.492;2023-02-28T07:26:53;6.38;;;4.00;;
64029;SDS011;50277;52.064;4.492;2023-02-28T07:29:18;6.03;;;4.50;;
64029;SDS011;50277;52.064;4.492;2023-02-28T07:31:43;7.68;;;4.32;;
64029;SDS011;50277;52.064;4.492;2023-02-28T07:34:09;8.90;;;4.53;;
64029;SDS011;50277;52.064;4.492;2023-02-28T07:36:34;5.47;;;4.40;;
64029;SDS011;50277;52.064;4.492;2023-02-28T07:38:59;5.93;;;4.15;;
64029;SDS011;50277;52.064;4.492;2023-02-28T07:41:24;8.85;;;4.55;;
64029;SDS011;50277;52.064;4.492;2023-02-28T07:43:53;10.52;;;4.97;;
64029;SDS011;50277;52.064;4.492;2023-02-28T07:46:19;8.82;;;4.68;;
64029;SDS011;50277;52.064;4.492;2023-02-28T07:48:46;5.32;;;4.43;;
64029;SDS011;50277;52.064;4.492;2023-02-28T07:51:11;8.48;;;5.18;;
64029;SDS011;50277;52.064;4.492;2023-02-28T07:53:37;5.82;;;5.18;;
64029;SDS011;50277;52.064;4.492;2023-02-28T07:56:03;9.50;;;5.35;;
64029;SDS011;50277;52.064;4.492;2023-02-28T07:58:29;6.68;;;4.95;;
64029;SDS011;50277;52.064;4.492;2023-02-28T08:00:55;12.27;;;5.53;;
64029;SDS011;50277;52.064;4.492;2023-02-28T08:03:21;7.50;;;6.15;;
64029;SDS011;50277;52.064;4.492;2023-02-28T08:05:47;6.18;;;5.43;;
64029;SDS011;50277;52.064;4.492;2023-02-28T08:08:13;7.93;;;6.28;;
64029;SDS011;50277;52.064;4.492;2023-02-28T08:10:38;10.10;;;6.28;;
64029;SDS011;50277;52.064;4.492;2023-02-28T08:13:04;8.50;;;5.68;;
64029;SDS011;50277;52.064;4.492;2023-02-28T08:15:29;8.80;;;6.10;;
64029;SDS011;50277;52.064;4.492;2023-02-28T08:17:55;7.65;;;5.85;;
64029;SDS011;50277;52.064;4.492;2023-02-28T08:20:24;8.93;;;6.18;;
64029;SDS011;50277;52.064;4.492;2023-02-28T08:22:50;8.38;;;5.97;;
64029;SDS011;50277;52.064;4.492;2023-02-28T08:25:15;12.15;;;6.80;;
64029;SDS011;50277;52.064;4.492;2023-02-28T08:27:41;7.13;;;6.15;;
64029;SDS011;50277;52.064;4.492;2023-02-28T08:30:06;10.75;;;6.47;;
64029;SDS011;50277;52.064;4.492;2023-02-28T08:32:33;9.30;;;6.18;;
64029;SDS011;50277;52.064;4.492;2023-02-28T08:34:58;7.50;;;6.60;;
64029;SDS011;50277;52.064;4.492;2023-02-28T08:37:24;7.53;;;6.30;;
64029;SDS011;50277;52.064;4.492;2023-02-28T08:39:50;10.20;;;6.55;;
64029;SDS011;50277;52.064;4.492;2023-02-28T08:42:15;9.57;;;6.40;;
64029;SDS011;50277;52.064;4.492;2023-02-28T08:44:40;7.82;;;6.80;;
64029;SDS011;50277;52.064;4.492;2023-02-28T08:47:06;10.85;;;6.60;;
64029;SDS011;50277;52.064;4.492;2023-02-28T08:49:31;10.35;;;7.28;;
64029;SDS011;50277;52.064;4.492;2023-02-28T08:51:57;11.38;;;8.25;;
64029;SDS011;50277;52.064;4.492;2023-02-28T08:54:22;9.85;;;8.02;;
64029;SDS011;50277;52.064;4.492;2023-02-28T08:56:48;11.15;;;8.02;;
64029;SDS011;50277;52.064;4.492;2023-02-28T08:59:13;11.35;;;8.90;;
64029;SDS011;50277;52.064;4.492;2023-02-28T09:01:39;12.07;;;9.43;;
64029;SDS011;50277;52.064;4.492;2023-02-28T09:04:06;12.93;;;8.70;;
64029;SDS011;50277;52.064;4.492;2023-02-28T09:06:33;11.85;;;8.75;;
64029;SDS011;50277;52.064;4.492;2023-02-28T09:08:59;13.35;;;9.43;;
64029;SDS011;50277;52.064;4.492;2023-02-28T09:11:25;16.00;;;9.65;;
64029;SDS011;50277;52.064;4.492;2023-02-28T09:13:51;13.38;;;9.68;;
64029;SDS011;50277;52.064;4.492;2023-02-28T09:16:17;10.50;;;8.40;;
64029;SDS011;50277;52.064;4.492;2023-02-28T09:18:44;13.32;;;9.10;;
64029;SDS011;50277;52.064;4.492;2023-02-28T09:21:10;13.85;;;8.57;;
64029;SDS011;50277;52.064;4.492;2023-02-28T09:23:39;12.40;;;8.43;;
64029;SDS011;50277;52.064;4.492;2023-02-28T09:26:05;12.18;;;8.40;;
64029;SDS011;50277;52.064;4.492;2023-02-28T09:28:31;13.80;;;8.48;;
64029;SDS011;50277;52.064;4.492;2023-02-28T09:30:56;14.27;;;8.32;;
64029;SDS011;50277;52.064;4.492;2023-02-28T09:33:24;11.27;;;9.13;;
64029;SDS011;50277;52.064;4.492;2023-02-28T09:35:49;13.23;;;8.65;;
64029;SDS011;50277;52.064;4.492;2023-02-28T09:38:16;11.25;;;8.32;;
64029;SDS011;50277;52.064;4.492;2023-02-28T09:40:47;10.13;;;7.72;;
64029;SDS011;50277;52.064;4.492;2023-02-28T09:43:14;12.50;;;8.13;;
64029;SDS011;50277;52.064;4.492;2023-02-28T09:45:42;7.97;;;6.87;;
64029;SDS011;50277;52.064;4.492;2023-02-28T09:48:13;13.80;;;7.85;;
64029;SDS011;50277;52.064;4.492;2023-02-28T09:50:41;10.40;;;6.32;;
64029;SDS011;50277;52.064;4.492;2023-02-28T09:53:13;13.68;;;6.63;;
64029;SDS011;50277;52.064;4.492;2023-02-28T09:56:05;11.25;;;6.82;;
64029;SDS011;50277;52.064;4.492;2023-02-28T09:58:35;9.93;;;6.43;;
64029;SDS011;50277;52.064;4.492;2023-02-28T10:03:56;5.82;;;5.28;;
64029;SDS011;50277;52.064;4.492;2023-02-28T10:09:23;7.05;;;4.70;;
64029;SDS011;50277;52.064;4.492;2023-02-28T10:11:50;8.13;;;4.07;;
64029;SDS011;50277;52.064;4.492;2023-02-28T10:14:24;4.35;;;3.05;;
64029;SDS011;50277;52.064;4.492;2023-02-28T10:17:04;6.88;;;3.38;;
64029;SDS011;50277;52.064;4.492;2023-02-28T10:22:16;7.07;;;3.83;;
64029;SDS011;50277;52.064;4.492;2023-02-28T10:24:48;4.35;;;3.47;;
64029;SDS011;50277;52.064;4.492;2023-02-28T10:27:28;4.35;;;3.92;;
64029;SDS011;50277;52.064;4.492;2023-02-28T10:29:55;7.43;;;3.53;;
64029;SDS011;50277;52.064;4.492;2023-02-28T10:32:32;6.88;;;3.65;;
64029;SDS011;50277;52.064;4.492;2023-02-28T10:38:10;6.18;;;4.00;;
64029;SDS011;50277;52.064;4.492;2023-02-28T10:40:34;5.25;;;3.53;;
64029;SDS011;50277;52.064;4.492;2023-02-28T10:43:17;4.78;;;3.97;;
64029;SDS011;50277;52.064;4.492;2023-02-28T10:55:56;4.50;;;2.72;;
64029;SDS011;50277;52.064;4.492;2023-02-28T11:04:03;3.22;;;2.70;;
64029;SDS011;50277;52.064;4.492;2023-02-28T11:06:31;2.55;;;2.35;;
64029;SDS011;50277;52.064;4.492;2023-02-28T11:08:58;2.80;;;2.60;;
64029;SDS011;50277;52.064;4.492;2023-02-28T11:11:26;4.43;;;2.22;;
64029;SDS011;50277;52.064;4.492;2023-02-28T11:13:54;4.63;;;2.40;;
64029;SDS011;50277;52.064;4.492;2023-02-28T11:16:21;4.05;;;2.10;;
64029;SDS011;50277;52.064;4.492;2023-02-28T11:18:50;4.65;;;2.05;;
64029;SDS011;50277;52.064;4.492;2023-02-28T11:21:19;4.70;;;2.28;;
64029;SDS011;50277;52.064;4.492;2023-02-28T11:23:47;2.33;;;2.17;;
64029;SDS011;50277;52.064;4.492;2023-02-28T11:26:14;3.17;;;2.70;;
64029;SDS011;50277;52.064;4.492;2023-02-28T11:28:41;2.17;;;1.77;;
64029;SDS011;50277;52.064;4.492;2023-02-28T11:36:21;2.55;;;2.08;;
64029;SDS011;50277;52.064;4.492;2023-02-28T11:38:49;3.40;;;2.08;;
64029;SDS011;50277;52.064;4.492;2023-02-28T11:41:28;1.95;;;1.85;;
64029;SDS011;50277;52.064;4.492;2023-02-28T11:44:11;2.22;;;1.98;;
64029;SDS011;50277;52.064;4.492;2023-02-28T11:47:17;6.20;;;2.05;;
64029;SDS011;50277;52.064;4.492;2023-02-28T11:49:56;3.55;;;2.10;;
64029;SDS011;50277;52.064;4.492;2023-02-28T12:01:01;3.63;;;2.42;;
64029;SDS011;50277;52.064;4.492;2023-02-28T12:09:17;2.00;;;1.90;;
64029;SDS011;50277;52.064;4.492;2023-02-28T12:11:54;1.98;;;1.73;;
64029;SDS011;50277;52.064;4.492;2023-02-28T12:19:51;1.70;;;1.60;;
64029;SDS011;50277;52.064;4.492;2023-02-28T12:27:36;2.15;;;1.70;;
64029;SDS011;50277;52.064;4.492;2023-02-28T12:33:09;2.05;;;1.90;;
64029;SDS011;50277;52.064;4.492;2023-02-28T12:35:37;1.80;;;1.70;;
64029;SDS011;50277;52.064;4.492;2023-02-28T12:38:24;5.07;;;1.83;;
64029;SDS011;50277;52.064;4.492;2023-02-28T12:41:00;2.00;;;1.73;;
64029;SDS011;50277;52.064;4.492;2023-02-28T12:43:30;3.70;;;1.88;;
64029;SDS011;50277;52.064;4.492;2023-02-28T12:46:09;5.45;;;1.95;;
64029;SDS011;50277;52.064;4.492;2023-02-28T12:48:48;2.00;;;1.88;;
64029;SDS011;50277;52.064;4.492;2023-02-28T12:51:17;1.73;;;1.63;;
64029;SDS011;50277;52.064;4.492;2023-02-28T12:59:18;2.70;;;2.20;;
64029;SDS011;50277;52.064;4.492;2023-02-28T13:07:31;2.30;;;2.00;;
64029;SDS011;50277;52.064;4.492;2023-02-28T13:10:03;2.30;;;1.85;;
64029;SDS011;50277;52.064;4.492;2023-02-28T13:12:31;2.22;;;2.03;;
64029;SDS011;50277;52.064;4.492;2023-02-28T13:17:47;2.03;;;1.80;;
64029;SDS011;50277;52.064;4.492;2023-02-28T13:20:20;2.22;;;2.03;;
64029;SDS011;50277;52.064;4.492;2023-02-28T13:22:50;3.65;;;1.90;;
64029;SDS011;50277;52.064;4.492;2023-02-28T13:27:58;3.80;;;2.00;;
64029;SDS011;50277;52.064;4.492;2023-02-28T13:46:31;3.28;;;2.00;;
64029;SDS011;50277;52.064;4.492;2023-02-28T13:49:17;4.32;;;2.10;;
64029;SDS011;50277;52.064;4.492;2023-02-28T13:51:51;1.98;;;1.88;;
64029;SDS011;50277;52.064;4.492;2023-02-28T14:05:23;2.42;;;2.00;;
64029;SDS011;50277;52.064;4.492;2023-02-28T14:07:57;2.50;;;2.15;;
64029;SDS011;50277;52.064;4.492;2023-02-28T14:10:30;3.15;;;1.90;;
64029;SDS011;50277;52.064;4.492;2023-02-28T14:13:36;2.25;;;2.05;;
64029;SDS011;50277;52.064;4.492;2023-02-28T14:16:05;3.55;;;2.15;;
64029;SDS011;50277;52.064;4.492;2023-02-28T14:18:34;2.35;;;2.08;;
64029;SDS011;50277;52.064;4.492;2023-02-28T14:21:02;2.20;;;2.10;;
64029;SDS011;50277;52.064;4.492;2023-02-28T14:23:36;2.33;;;2.08;;
64029;SDS011;50277;52.064;4.492;2023-02-28T14:31:51;2.20;;;1.83;;
64029;SDS011;50277;52.064;4.492;2023-02-28T14:37:20;2.30;;;1.90;;
64029;SDS011;50277;52.064;4.492;2023-02-28T14:39:50;2.30;;;2.10;;
64029;SDS011;50277;52.064;4.492;2023-02-28T14:42:29;1.98;;;1.73;;
64029;SDS011;50277;52.064;4.492;2023-02-28T14:44:57;3.95;;;1.83;;
64029;SDS011;50277;52.064;4.492;2023-02-28T14:47:23;2.55;;;1.80;;
64029;SDS011;50277;52.064;4.492;2023-02-28T14:49:54;2.33;;;2.00;;
64029;SDS011;50277;52.064;4.492;2023-02-28T14:52:24;3.25;;;2.17;;
64029;SDS011;50277;52.064;4.492;2023-02-28T14:55:06;2.00;;;1.80;;
64029;SDS011;50277;52.064;4.492;2023-02-28T14:57:40;2.25;;;1.73;;
64029;SDS011;50277;52.064;4.492;2023-02-28T15:02:48;2.15;;;1.98;;
64029;SDS011;50277;52.064;4.492;2023-02-28T15:07:43;2.10;;;1.92;;
64029;SDS011;50277;52.064;4.492;2023-02-28T15:10:24;1.90;;;1.80;;
64029;SDS011;50277;52.064;4.492;2023-02-28T15:12:52;2.45;;;1.83;;
64029;SDS011;50277;52.064;4.492;2023-02-28T15:15:21;3.70;;;1.80;;
64029;SDS011;50277;52.064;4.492;2023-02-28T15:17:53;2.78;;;1.92;;
64029;SDS011;50277;52.064;4.492;2023-02-28T15:20:19;1.80;;;1.70;;
64029;SDS011;50277;52.064;4.492;2023-02-28T15:22:45;2.15;;;1.95;;
64029;SDS011;50277;52.064;4.492;2023-02-28T15:25:13;1.88;;;1.77;;
64029;SDS011;50277;52.064;4.492;2023-02-28T15:27:43;3.05;;;1.77;;
64029;SDS011;50277;52.064;4.492;2023-02-28T15:30:15;3.25;;;2.70;;
64029;SDS011;50277;52.064;4.492;2023-02-28T15:32:43;5.88;;;1.80;;
64029;SDS011;50277;52.064;4.492;2023-02-28T15:35:26;4.63;;;1.85;;
64029;SDS011;50277;52.064;4.492;2023-02-28T15:37:58;2.35;;;2.15;;
64029;SDS011;50277;52.064;4.492;2023-02-28T15:40:27;3.53;;;1.80;;
64029;SDS011;50277;52.064;4.492;2023-02-28T15:43:37;1.80;;;1.70;;
64029;SDS011;50277;52.064;4.492;2023-02-28T15:45:58;2.65;;;2.00;;
64029;SDS011;50277;52.064;4.492;2023-02-28T15:49:12;2.47;;;2.20;;
64029;SDS011;50277;52.064;4.492;2023-02-28T15:51:18;3.08;;;1.80;;
64029;SDS011;50277;52.064;4.492;2023-02-28T15:53:51;2.50;;;1.77;;
64029;SDS011;50277;52.064;4.492;2023-02-28T15:56:23;4.63;;;1.98;;
64029;SDS011;50277;52.064;4.492;2023-02-28T15:58:50;2.55;;;2.35;;
64029;SDS011;50277;52.064;4.492;2023-02-28T16:01:20;2.10;;;1.90;;
64029;SDS011;50277;52.064;4.492;2023-02-28T16:03:50;3.03;;;2.22;;
64029;SDS011;50277;52.064;4.492;2023-02-28T16:06:34;6.80;;;2.05;;
64029;SDS011;50277;52.064;4.492;2023-02-28T16:09:00;2.45;;;2.00;;
64029;SDS011;50277;52.064;4.492;2023-02-28T16:11:27;2.83;;;1.90;;
64029;SDS011;50277;52.064;4.492;2023-02-28T16:13:53;2.15;;;1.88;;
64029;SDS011;50277;52.064;4.492;2023-02-28T16:16:20;2.90;;;2.10;;
64029;SDS011;50277;52.064;4.492;2023-02-28T16:18:46;3.08;;;2.67;;
64029;SDS011;50277;52.064;4.492;2023-02-28T16:21:12;5.00;;;2.70;;
64029;SDS011;50277;52.064;4.492;2023-02-28T16:23:37;2.22;;;2.10;;
64029;SDS011;50277;52.064;4.492;2023-02-28T16:26:03;3.65;;;2.35;;
64029;SDS011;50277;52.064;4.492;2023-02-28T16:28:33;3.40;;;2.28;;
64029;SDS011;50277;52.064;4.492;2023-02-28T16:31:00;2.45;;;2.25;;
64029;SDS011;50277;52.064;4.492;2023-02-28T16:33:30;3.38;;;2.35;;
64029;SDS011;50277;52.064;4.492;2023-02-28T16:35:56;5.07;;;2.47;;
64029;SDS011;50277;52.064;4.492;2023-02-28T16:38:21;2.30;;;2.10;;
64029;SDS011;50277;52.064;4.492;2023-02-28T16:40:49;2.75;;;2.00;;
64029;SDS011;50277;52.064;4.492;2023-02-28T16:43:18;3.03;;;2.50;;
64029;SDS011;50277;52.064;4.492;2023-02-28T16:45:46;3.92;;;2.10;;
64029;SDS011;50277;52.064;4.492;2023-02-28T16:48:15;5.15;;;3.28;;
64029;SDS011;50277;52.064;4.492;2023-02-28T16:50:41;3.42;;;2.50;;
64029;SDS011;50277;52.064;4.492;2023-02-28T16:53:07;3.72;;;2.60;;
64029;SDS011;50277;52.064;4.492;2023-02-28T16:55:32;3.63;;;2.53;;
64029;SDS011;50277;52.064;4.492;2023-02-28T16:57:59;2.47;;;2.28;;
64029;SDS011;50277;52.064;4.492;2023-02-28T17:00:26;6.55;;;2.70;;
64029;SDS011;50277;52.064;4.492;2023-02-28T17:02:53;3.65;;;2.47;;
64029;SDS011;50277;52.064;4.492;2023-02-28T17:05:19;2.95;;;2.50;;
64029;SDS011;50277;52.064;4.492;2023-02-28T17:07:45;2.55;;;2.35;;
64029;SDS011;50277;52.064;4.492;2023-02-28T17:10:18;3.53;;;2.40;;
64029;SDS011;50277;52.064;4.492;2023-02-28T17:12:48;3.95;;;3.03;;
64029;SDS011;50277;52.064;4.492;2023-02-28T17:15:14;3.20;;;2.53;;
64029;SDS011;50277;52.064;4.492;2023-02-28T17:17:41;2.95;;;2.50;;
64029;SDS011;50277;52.064;4.492;2023-02-28T17:20:28;2.83;;;2.58;;
64029;SDS011;50277;52.064;4.492;2023-02-28T17:22:53;3.40;;;3.10;;
64029;SDS011;50277;52.064;4.492;2023-02-28T17:25:19;3.75;;;2.88;;
64029;SDS011;50277;52.064;4.492;2023-02-28T17:27:45;3.03;;;2.72;;
64029;SDS011;50277;52.064;4.492;2023-02-28T17:30:20;4.30;;;2.95;;